Time;durP1;ratioP1;P1;durP2;ratioP2;P2;SDS_P1;SDS_P2;PMS_P1;PMS_P2;Temp;Humidity;BMP_temperature;BMP_pressure;BME280_temperature;BME280_humidity;BME280_pressure;Samples;Min_cycle;Max_cycle;Signal;HPM_P1;HPM_P2
2023/07/04 00:01:01;;;;;;;;;8.33;7.00;;;;;17.00;82.05;100994.19;5037275;28;46527;-74
2023/07/04 00:03:28;;;;;;;;;4.33;3.67;;;;;16.97;81.79;100990.84;5037640;28;45446;-74
2023/07/04 00:05:55;;;;;;;;;7.67;4.00;;;;;16.99;82.12;101000.47;5037820;28;45253;-76
2023/07/04 00:08:25;;;;;;;;;4.00;3.00;;;;;16.98;82.32;100998.72;5037398;28;45513;-75
2023/07/04 00:10:51;;;;;;;;;5.00;4.00;;;;;17.02;81.86;101005.66;5037261;28;46543;-74
2023/07/04 00:13:18;;;;;;;;;5.33;4.33;;;;;16.92;82.35;100983.06;5037662;28;45183;-74
2023/07/04 00:15:51;;;;;;;;;6.33;4.67;;;;;17.00;81.68;101009.31;5037354;28;45320;-74
2023/07/04 00:18:21;;;;;;;;;4.33;4.00;;;;;17.00;82.34;101001.31;5037419;28;45465;-75
2023/07/04 00:20:53;;;;;;;;;4.00;2.33;;;;;16.98;82.44;101013.84;5037436;28;45358;-76
2023/07/04 00:23:20;;;;;;;;;4.67;3.00;;;;;16.97;82.36;101006.78;5037209;28;45899;-76
2023/07/04 00:25:45;;;;;;;;;3.00;3.00;;;;;16.96;83.23;101010.38;5036605;28;45339;-75
2023/07/04 00:28:11;;;;;;;;;2.00;2.00;;;;;16.92;82.56;100993.69;5037377;28;45447;-74
2023/07/04 00:30:36;;;;;;;;;8.67;5.33;;;;;16.98;83.31;101008.53;5037274;28;46704;-74
2023/07/04 00:33:02;;;;;;;;;5.00;3.33;;;;;16.95;82.92;101004.19;5037379;28;45404;-75
2023/07/04 00:35:28;;;;;;;;;4.00;3.00;;;;;16.94;82.99;101009.59;5037257;28;45398;-76
2023/07/04 00:37:58;;;;;;;;;5.00;3.00;;;;;16.94;83.30;101015.75;5037390;28;45371;-75
2023/07/04 00:40:26;;;;;;;;;6.67;3.00;;;;;16.93;83.12;101013.19;5036994;28;45675;-74
2023/07/04 00:42:56;;;;;;;;;7.67;2.00;;;;;16.93;83.64;101011.38;5037042;28;45414;-74
2023/07/04 00:45:24;;;;;;;;;3.00;2.67;;;;;16.96;83.39;101019.25;5037085;28;45283;-74
2023/07/04 00:48:03;;;;;;;;;7.00;4.33;;;;;16.97;83.12;101025.41;5037316;28;45384;-75
2023/07/04 00:50:32;;;;;;;;;4.33;4.33;;;;;16.93;83.39;101024.66;5036834;28;47534;-75
2023/07/04 00:53:04;;;;;;;;;9.33;4.33;;;;;16.93;83.69;101030.00;5036950;28;45560;-78
2023/07/04 00:55:33;;;;;;;;;8.33;4.67;;;;;16.91;84.17;101021.22;5036785;28;45837;-74
2023/07/04 00:58:04;;;;;;;;;4.00;4.00;;;;;16.92;84.07;101024.75;5037215;28;45332;-74
2023/07/04 01:00:31;;;;;;;;;6.00;4.00;;;;;16.87;84.65;101008.97;5036488;28;45532;-77
2023/07/04 01:03:09;;;;;;;;;7.67;4.00;;;;;16.82;83.35;101017.16;5036769;28;45201;-72
2023/07/04 01:06:00;;;;;;;;;7.00;4.00;;;;;16.86;84.54;101020.53;5036995;28;45352;-73
2023/07/04 01:08:41;;;;;;;;;5.33;4.00;;;;;16.83;84.46;101013.56;5036856;28;45305;-73
2023/07/04 01:11:15;;;;;;;;;6.33;3.33;;;;;16.84;83.92;101011.75;5036879;28;45421;-73
2023/07/04 01:13:43;;;;;;;;;7.00;4.00;;;;;16.79;85.03;101011.09;5036831;28;45315;-75
2023/07/04 01:16:17;;;;;;;;;4.00;4.00;;;;;16.80;84.63;101021.69;5036316;28;45335;-74
2023/07/04 01:18:46;;;;;;;;;5.00;3.00;;;;;16.78;84.69;101014.69;5036967;28;45385;-74
2023/07/04 01:21:14;;;;;;;;;6.33;3.00;;;;;16.63;84.40;100990.50;5036355;28;46112;-72
2023/07/04 01:23:42;;;;;;;;;5.00;3.00;;;;;16.76;85.73;101017.44;5036358;28;45394;-71
2023/07/04 01:26:22;;;;;;;;;2.75;2.75;;;;;16.66;84.91;101006.34;5036879;28;45328;-72
2023/07/04 01:28:51;;;;;;;;;2.00;1.67;;;;;16.70;85.75;101017.69;5056279;28;45300;-71
2023/07/04 01:31:20;;;;;;;;;6.00;3.00;;;;;16.71;84.65;101014.09;5056508;28;45700;-72
2023/07/04 01:33:47;;;;;;;;;4.33;4.33;;;;;16.69;86.01;101016.81;5056575;28;45357;-72
2023/07/04 01:36:18;;;;;;;;;3.67;3.00;;;;;16.67;85.54;101013.38;5056617;28;45458;-72
2023/07/04 01:38:44;;;;;;;;;5.00;4.00;;;;;16.64;85.73;101008.22;5059525;28;45321;-72
2023/07/04 01:41:10;;;;;;;;;6.00;3.00;;;;;16.55;85.90;100997.94;5059861;28;46571;-72
2023/07/04 01:43:36;;;;;;;;;4.33;3.67;;;;;16.61;86.85;101008.31;5059939;28;45435;-72
2023/07/04 01:46:02;;;;;;;;;5.33;3.00;;;;;16.52;85.75;101000.75;5059970;28;45329;-72
2023/07/04 01:48:28;;;;;;;;;6.00;4.00;;;;;16.55;87.31;101000.63;5060165;28;45392;-73
2023/07/04 01:50:53;;;;;;;;;9.00;5.33;;;;;16.47;87.04;100992.13;5059767;28;45341;-72
2023/07/04 01:53:19;;;;;;;;;7.00;4.00;;;;;16.50;86.88;101006.13;5059962;28;45480;-72
2023/07/04 01:55:44;;;;;;;;;8.67;4.33;;;;;16.26;87.21;100962.88;5059639;28;45300;-73
2023/07/04 01:58:09;;;;;;;;;5.33;4.67;;;;;16.38;86.40;100985.38;5059807;28;45253;-74
2023/07/04 02:00:35;;;;;;;;;9.00;5.00;;;;;16.44;87.29;101001.09;5055894;28;46388;-74
2023/07/04 02:03:00;;;;;;;;;8.67;3.00;;;;;16.37;86.81;100996.97;5039572;28;45428;-73
2023/07/04 02:05:26;;;;;;;;;4.75;3.00;;;;;16.37;86.48;100991.66;5039834;28;45257;-75
2023/07/04 02:07:51;;;;;;;;;9.67;4.00;;;;;16.34;88.13;100989.13;5039690;28;45284;-72
2023/07/04 02:10:17;;;;;;;;;5.00;3.67;;;;;16.44;86.94;101002.88;5039178;28;45578;-71
2023/07/04 02:12:42;;;;;;;;;7.00;4.00;;;;;16.43;86.72;101010.00;5039644;28;45329;-72
2023/07/04 02:15:08;;;;;;;;;4.67;4.33;;;;;16.40;86.71;100993.31;5039437;28;45273;-71
2023/07/04 02:17:34;;;;;;;;;7.67;5.00;;;;;16.33;88.15;100993.56;5048231;28;45918;-72
2023/07/04 02:19:59;;;;;;;;;5.67;4.33;;;;;16.36;87.75;100997.91;5058921;28;47277;-73
2023/07/04 02:22:24;;;;;;;;;6.33;3.67;;;;;16.28;86.72;100979.63;5059410;28;45355;-72
2023/07/04 02:24:50;;;;;;;;;6.67;5.00;;;;;16.35;87.16;100991.72;5059572;28;45391;-73
2023/07/04 02:27:15;;;;;;;;;3.67;3.67;;;;;16.35;86.54;100990.84;5059515;28;45345;-72
2023/07/04 02:29:41;;;;;;;;;5.67;2.00;;;;;16.28;87.75;100982.28;5059330;28;46462;-73
2023/07/04 02:32:06;;;;;;;;;6.00;4.00;;;;;16.32;87.63;100993.63;5058944;28;45808;-72
2023/07/04 02:34:32;;;;;;;;;5.00;4.00;;;;;16.22;87.17;100971.94;5059294;28;45374;-72
2023/07/04 02:36:57;;;;;;;;;5.33;2.33;;;;;16.27;88.13;100991.19;5059095;28;45401;-72
2023/07/04 02:39:26;;;;;;;;;5.25;3.00;;;;;16.26;87.29;100997.41;5058549;28;46308;-72
2023/07/04 02:41:52;;;;;;;;;4.25;3.25;;;;;16.14;87.94;100974.91;5059085;28;45332;-73
2023/07/04 02:44:19;;;;;;;;;6.75;2.75;;;;;16.25;86.91;100997.47;5059010;28;45414;-72
2023/07/04 02:46:44;;;;;;;;;5.00;5.00;;;;;16.22;88.02;100987.88;5059436;28;45502;-73
2023/07/04 02:49:09;;;;;;;;;15.67;5.00;;;;;16.18;87.08;100978.31;5058056;28;45991;-74
2023/07/04 02:51:34;;;;;;;;;5.00;4.00;;;;;16.23;86.94;100994.88;5058889;28;45232;-73
2023/07/04 02:54:00;;;;;;;;;3.75;3.00;;;;;16.23;87.80;100989.56;5057763;28;45420;-73
2023/07/04 02:56:25;;;;;;;;;7.67;3.67;;;;;16.04;87.22;100962.94;5058657;28;45304;-73
2023/07/04 02:58:50;;;;;;;;;8.50;3.75;;;;;15.99;87.47;100949.00;5058679;28;46566;-73
2023/07/04 03:01:16;;;;;;;;;9.67;4.00;;;;;16.22;87.32;100997.63;5058518;28;45366;-73
2023/07/04 03:03:41;;;;;;;;;4.67;4.67;;;;;16.14;86.79;100985.50;5058982;28;45480;-73
2023/07/04 03:06:07;;;;;;;;;10.00;5.00;;;;;15.97;87.55;100958.81;5058973;28;45468;-73
2023/07/04 03:08:32;;;;;;;;;6.00;4.00;;;;;16.13;87.24;100991.75;5058553;28;45847;-73
2023/07/04 03:10:57;;;;;;;;;7.00;3.67;;;;;16.10;87.95;100985.72;5058516;28;45359;-74
2023/07/04 03:13:23;;;;;;;;;4.50;3.75;;;;;16.12;88.22;100992.69;5058838;28;45420;-74
2023/07/04 03:15:48;;;;;;;;;5.00;4.67;;;;;16.11;88.27;101001.59;5058703;28;45226;-73
2023/07/04 03:18:13;;;;;;;;;3.00;3.00;;;;;16.10;88.07;101002.50;5058457;28;45446;-73
2023/07/04 03:20:39;;;;;;;;;4.00;4.00;;;;;16.08;87.92;101006.19;5058561;28;45225;-74
2023/07/04 03:23:04;;;;;;;;;7.50;2.00;;;;;16.10;87.91;100999.84;5058665;28;45394;-73
2023/07/04 03:25:30;;;;;;;;;5.33;2.00;;;;;16.05;87.95;100999.19;5058532;28;45573;-73
2023/07/04 03:27:55;;;;;;;;;6.33;3.33;;;;;16.07;88.19;101001.78;5058224;28;45316;-73
2023/07/04 03:30:21;;;;;;;;;5.00;4.00;;;;;16.06;87.52;101005.38;5057226;28;45413;-73
2023/07/04 03:32:47;;;;;;;;;7.33;3.00;;;;;16.04;88.02;101007.22;5058267;28;45257;-75
2023/07/04 03:35:12;;;;;;;;;10.33;4.00;;;;;16.01;89.14;100997.59;5057384;28;45459;-74
2023/07/04 03:37:37;;;;;;;;;16.67;10.33;;;;;15.96;88.31;101003.09;5057878;28;45497;-73
2023/07/04 03:40:07;;;;;;;;;5.67;3.33;;;;;15.98;88.44;101006.53;5057855;28;45554;-73
2023/07/04 03:42:34;;;;;;;;;5.00;5.00;;;;;15.90;88.64;100990.09;5058212;28;45328;-75
2023/07/04 03:44:59;;;;;;;;;11.00;7.00;;;;;15.93;88.81;100999.69;5056959;28;45503;-74
2023/07/04 03:47:25;;;;;;;;;5.00;3.00;;;;;15.90;88.34;100990.09;5057925;28;45541;-74
2023/07/04 03:49:50;;;;;;;;;5.00;5.00;;;;;15.94;89.08;100996.13;5058267;28;45325;-76
2023/07/04 03:52:16;;;;;;;;;4.00;3.00;;;;;15.96;88.65;100997.78;5057929;28;45349;-73
2023/07/04 03:54:41;;;;;;;;;4.75;3.00;;;;;15.94;88.44;101002.28;5058298;28;45482;-71
2023/07/04 03:57:08;;;;;;;;;3.00;2.00;;;;;15.93;88.32;100991.72;5057360;28;45695;-71
2023/07/04 03:59:34;;;;;;;;;7.00;4.00;;;;;15.88;89.49;100993.72;5057698;28;45316;-69
2023/07/04 04:01:59;;;;;;;;;8.67;4.67;;;;;15.89;88.89;100996.31;5057677;28;45504;-69
2023/07/04 04:04:24;;;;;;;;;4.50;4.50;;;;;15.86;89.74;100992.91;5057425;28;45383;-68
2023/07/04 04:06:52;;;;;;;;;5.67;4.00;;;;;15.89;89.44;101001.63;5057262;28;46921;-69
2023/07/04 04:09:17;;;;;;;;;6.33;4.33;;;;;15.86;89.28;100991.13;5057507;28;45356;-66
2023/07/04 04:11:42;;;;;;;;;5.00;3.33;;;;;15.86;90.17;100985.81;5057691;28;45359;-68
2023/07/04 04:14:09;;;;;;;;;6.33;4.00;;;;;15.87;89.71;100989.31;5057937;28;45422;-68
2023/07/04 04:16:35;;;;;;;;;9.33;3.67;;;;;15.91;90.09;100997.09;5057073;28;46691;-68
2023/07/04 04:19:01;;;;;;;;;5.75;3.00;;;;;15.91;90.05;100991.78;5057569;28;45453;-68
2023/07/04 04:21:27;;;;;;;;;7.67;4.67;;;;;15.74;90.10;100965.91;5057519;28;45315;-68
2023/07/04 04:23:52;;;;;;;;;4.25;4.00;;;;;15.93;90.38;100995.25;5057737;28;45398;-68
2023/07/04 04:26:19;;;;;;;;;6.00;5.00;;;;;15.79;90.05;100965.75;5057162;28;46184;-68
2023/07/04 04:28:44;;;;;;;;;8.00;3.00;;;;;15.89;89.95;100977.72;5057250;28;45342;-68
2023/07/04 04:31:11;;;;;;;;;8.00;4.33;;;;;16.00;90.80;100993.19;5057649;28;45405;-73
2023/07/04 04:33:37;;;;;;;;;6.33;4.67;;;;;15.97;90.41;100983.56;5057646;28;45587;-74
2023/07/04 04:36:02;;;;;;;;;7.00;4.00;;;;;15.95;90.99;100980.13;5055779;28;46548;-67
2023/07/04 04:38:28;;;;;;;;;6.00;6.00;;;;;16.08;91.14;100998.22;5057285;28;45250;-73
2023/07/04 04:40:55;;;;;;;;;5.00;4.67;;;;;16.07;90.85;100986.69;5055817;28;45836;-67
2023/07/04 04:43:21;;;;;;;;;8.33;4.00;;;;;16.13;90.94;100990.91;5057402;28;45409;-69
2023/07/04 04:45:47;;;;;;;;;10.33;7.00;;;;;16.05;90.89;100971.75;5057086;28;46443;-70
2023/07/04 04:48:28;;;;;;;;;13.00;8.33;;;;;16.10;91.06;100970.63;5056797;28;45347;-65
2023/07/04 04:50:54;;;;;;;;;4.67;3.33;;;;;16.19;91.16;100991.50;5057170;28;45319;-73
2023/07/04 04:53:19;;;;;;;;;5.25;2.00;;;;;16.23;90.74;101000.19;5057335;28;45513;-73
2023/07/04 04:55:45;;;;;;;;;7.00;5.00;;;;;16.16;91.26;100986.34;5056685;28;45430;-72
2023/07/04 04:58:11;;;;;;;;;2.67;2.00;;;;;16.21;90.89;100990.56;5056784;28;45394;-70
2023/07/04 05:00:36;;;;;;;;;10.33;7.00;;;;;16.28;91.58;101003.53;5055702;28;45482;-72
2023/07/04 05:03:01;;;;;;;;;8.33;5.33;;;;;16.29;91.15;101004.41;5057234;28;45392;-73
2023/07/04 05:05:27;;;;;;;;;5.67;3.00;;;;;16.18;90.98;100989.78;5056854;28;46199;-73
2023/07/04 05:07:52;;;;;;;;;5.33;5.00;;;;;16.34;90.92;101011.25;5056775;28;45367;-72
2023/07/04 05:10:17;;;;;;;;;5.50;3.25;;;;;16.36;90.34;101006.72;5057098;28;45257;-73
2023/07/04 05:12:42;;;;;;;;;12.00;4.00;;;;;16.36;89.95;101006.72;5058320;28;45740;-72
2023/07/04 05:15:08;;;;;;;;;4.33;4.33;;;;;16.44;89.58;101006.41;5060396;28;46412;-73
2023/07/04 05:17:34;;;;;;;;;5.67;4.00;;;;;16.46;90.46;101011.66;5058868;28;45686;-72
2023/07/04 05:20:00;;;;;;;;;10.33;5.00;;;;;16.44;90.43;100994.91;5059968;28;45467;-73
2023/07/04 05:22:26;;;;;;;;;18.00;15.33;;;;;16.49;89.09;100998.22;5060616;28;45269;-72
2023/07/04 05:24:51;;;;;;;;;5.00;3.33;;;;;16.58;88.63;101012.91;5059003;28;46018;-72
2023/07/04 05:27:17;;;;;;;;;6.00;5.67;;;;;16.62;88.95;101009.19;5059946;28;45320;-72
2023/07/04 05:29:42;;;;;;;;;7.33;4.33;;;;;16.50;90.19;100987.53;5060423;28;45244;-71
2023/07/04 05:32:08;;;;;;;;;5.00;5.00;;;;;16.65;88.63;101004.59;5060116;28;45493;-72
2023/07/04 05:34:33;;;;;;;;;4.00;4.00;;;;;16.63;90.47;101006.47;5059781;28;46199;-72
2023/07/04 05:37:01;;;;;;;;;7.33;4.67;;;;;16.63;89.62;101014.44;5059998;28;45300;-72
2023/07/04 05:39:27;;;;;;;;;7.67;6.00;;;;;16.63;90.27;101009.13;5059946;28;45415;-71
2023/07/04 05:41:52;;;;;;;;;7.67;3.67;;;;;16.69;90.55;101003.53;5060075;28;45401;-72
2023/07/04 05:44:19;;;;;;;;;9.00;3.00;;;;;16.72;90.14;101005.19;5059708;28;45473;-72
2023/07/04 05:46:45;;;;;;;;;32.00;15.33;;;;;16.79;90.74;101005.78;5059837;28;45390;-72
2023/07/04 05:49:10;;;;;;;;;10.00;4.33;;;;;16.78;89.99;100999.59;5059897;28;45323;-72
2023/07/04 05:51:36;;;;;;;;;10.00;5.00;;;;;16.80;91.83;100996.88;5060122;28;45294;-73
2023/07/04 05:54:01;;;;;;;;;8.67;4.33;;;;;16.91;91.20;100999.94;5057632;28;45419;-73
2023/07/04 05:56:29;;;;;;;;;6.50;5.00;;;;;16.99;90.82;101007.56;5059386;28;45297;-73
2023/07/04 05:58:59;;;;;;;;;11.00;5.33;;;;;17.05;90.29;101007.31;5059718;28;45424;-72
2023/07/04 06:01:29;;;;;;;;;8.67;5.00;;;;;17.12;88.83;101011.41;5058280;28;45369;-71
2023/07/04 06:03:56;;;;;;;;;12.67;5.33;;;;;17.17;89.86;101009.41;5059430;28;46575;-72
2023/07/04 06:06:27;;;;;;;;;6.00;5.00;;;;;17.23;88.79;101005.59;5059348;28;45443;-72
2023/07/04 06:08:54;;;;;;;;;8.00;6.00;;;;;17.26;89.33;101001.94;5059591;28;45568;-72
2023/07/04 06:11:21;;;;;;;;;7.67;5.00;;;;;17.36;87.87;101012.06;5059837;28;45308;-71
2023/07/04 06:13:47;;;;;;;;;10.00;5.00;;;;;17.39;88.05;101003.94;5059231;28;46871;-72
2023/07/04 06:16:12;;;;;;;;;10.33;5.00;;;;;17.40;88.28;101002.16;5059163;28;45486;-72
2023/07/04 06:18:37;;;;;;;;;9.67;5.00;;;;;17.39;87.12;101001.25;5059412;28;45635;-71
2023/07/04 06:21:15;;;;;;;;;6.33;5.33;;;;;17.63;86.61;101013.47;5059708;28;45360;-72
2023/07/04 06:23:41;;;;;;;;;7.67;5.00;;;;;17.84;85.07;101011.59;5058387;28;45649;-71
2023/07/04 06:26:08;;;;;;;;;10.00;5.00;;;;;17.81;84.47;101001.09;5058940;28;45222;-70
2023/07/04 06:28:34;;;;;;;;;7.67;3.67;;;;;17.87;84.42;101017.63;5058166;28;45413;-71
2023/07/04 06:31:03;;;;;;;;;8.67;4.67;;;;;17.87;84.05;101003.44;5052767;28;45282;-70
2023/07/04 06:33:29;;;;;;;;;8.00;5.00;;;;;18.01;83.73;101024.97;5059315;28;46390;-71
2023/07/04 06:35:55;;;;;;;;;6.00;3.33;;;;;18.05;83.83;101020.34;5059065;28;45324;-72
2023/07/04 06:38:21;;;;;;;;;6.67;4.33;;;;;18.02;82.17;100997.41;5058857;28;45480;-72
2023/07/04 06:41:05;;;;;;;;;7.00;4.00;;;;;18.18;82.27;101008.16;5059412;28;45554;-72
2023/07/04 06:43:32;;;;;;;;;6.33;5.67;;;;;18.35;81.28;101025.94;5058752;28;47506;-71
2023/07/04 06:45:58;;;;;;;;;7.33;5.00;;;;;18.40;81.34;101015.03;5058936;28;45454;-71
2023/07/04 06:48:25;;;;;;;;;8.00;5.00;;;;;18.52;80.01;101018.88;5058459;28;45632;-72
2023/07/04 06:51:07;;;;;;;;;6.33;5.00;;;;;18.59;79.33;101023.81;5059068;28;45568;-71
2023/07/04 06:53:34;;;;;;;;;5.00;3.00;;;;;18.62;79.10;101023.66;5058731;28;45170;-72
2023/07/04 06:56:04;;;;;;;;;4.33;3.33;;;;;18.71;77.79;101034.78;5058404;28;45308;-72
2023/07/04 06:58:29;;;;;;;;;4.00;4.00;;;;;18.76;78.33;101036.28;5057486;28;45574;-71
2023/07/04 07:00:55;;;;;;;;;7.00;5.00;;;;;18.86;75.79;101041.13;5054822;28;45779;-70
2023/07/04 07:03:21;;;;;;;;;4.67;4.67;;;;;18.97;75.34;101049.47;5056232;28;47193;-70
2023/07/04 07:05:46;;;;;;;;;7.00;3.00;;;;;18.98;75.52;101051.19;5048877;28;45630;-70
2023/07/04 07:08:14;;;;;;;;;4.00;3.00;;;;;19.05;75.35;101046.38;5058552;28;45330;-71
2023/07/04 07:10:49;;;;;;;;;10.33;4.67;;;;;19.12;74.76;101047.75;5058808;28;45174;-70
2023/07/04 07:13:14;;;;;;;;;4.00;4.00;;;;;19.17;74.30;101042.16;5058148;28;45277;-70
2023/07/04 07:15:40;;;;;;;;;4.00;4.00;;;;;19.27;73.52;101043.41;5058489;28;45278;-71
2023/07/04 07:18:05;;;;;;;;;7.00;4.33;;;;;19.51;73.41;101046.53;5058225;28;45395;-69
2023/07/04 07:20:30;;;;;;;;;3.33;2.33;;;;;19.77;72.68;101050.41;5058455;28;45282;-70
2023/07/04 07:22:56;;;;;;;;;3.00;3.00;;;;;20.32;70.62;101059.75;5042780;28;45515;-70
2023/07/04 07:25:21;;;;;;;;;6.33;4.67;;;;;20.22;67.69;101055.06;5058223;28;45447;-70
2023/07/04 07:27:46;;;;;;;;;7.67;6.00;;;;;20.25;69.10;101055.72;5058287;28;45432;-70
2023/07/04 07:30:12;;;;;;;;;4.00;3.33;;;;;20.19;69.41;101058.75;5058702;28;45688;-70
2023/07/04 07:32:38;;;;;;;;;6.67;3.00;;;;;20.29;69.42;101048.41;5057972;28;45461;-70
2023/07/04 07:35:03;;;;;;;;;7.67;4.00;;;;;20.36;68.28;101063.13;5044464;28;45381;-70
2023/07/04 07:37:29;;;;;;;;;49.33;32.67;;;;;20.30;68.25;101056.34;5053671;28;45394;-70
2023/07/04 07:39:55;;;;;;;;;12.00;6.67;;;;;20.39;68.88;101062.94;5048202;28;45434;-71
2023/07/04 07:42:20;;;;;;;;;10.67;8.00;;;;;20.31;67.58;101054.50;5037673;28;45690;-72
2023/07/04 07:44:45;;;;;;;;;6.00;6.00;;;;;20.29;67.67;101062.63;5039428;28;45462;-70
2023/07/04 07:47:11;;;;;;;;;66.50;53.25;;;;;20.39;67.70;101065.63;5044682;28;45640;-69
2023/07/04 07:49:37;;;;;;;;;8.67;5.33;;;;;20.22;67.22;101042.53;5046137;28;45297;-70
2023/07/04 07:52:03;;;;;;;;;8.67;5.00;;;;;20.32;68.14;101073.13;5037581;28;45749;-69
2023/07/04 07:54:28;;;;;;;;;4.00;3.00;;;;;20.33;67.52;101074.88;5040822;28;45463;-68
2023/07/04 07:56:53;;;;;;;;;13.67;7.67;;;;;20.33;66.94;101073.97;5046081;28;45935;-70
2023/07/04 07:59:20;;;;;;;;;7.33;3.00;;;;;20.42;67.45;101075.25;5037909;28;45346;-69
2023/07/04 08:01:46;;;;;;;;;5.67;3.00;;;;;20.31;65.95;101046.47;5042523;28;46360;-70
2023/07/04 08:04:11;;;;;;;;;11.00;6.67;;;;;20.45;66.16;101073.28;5048395;28;45352;-70
2023/07/04 08:06:41;;;;;;;;;8.00;7.33;;;;;20.49;65.80;101082.84;5040121;28;45526;-70
2023/07/04 08:09:09;;;;;;;;;9.00;6.00;;;;;20.56;66.85;101087.81;5042773;28;45320;-70
2023/07/04 08:11:36;;;;;;;;;6.33;4.33;;;;;20.56;65.74;101071.78;5046616;28;47033;-71
2023/07/04 08:14:01;;;;;;;;;7.67;4.00;;;;;20.74;66.46;101077.84;5037222;28;45339;-70
2023/07/04 08:16:39;;;;;;;;;11.00;4.33;;;;;20.76;64.82;101057.25;5037771;28;45467;-70
2023/07/04 08:19:05;;;;;;;;;10.00;6.00;;;;;20.80;65.05;101064.13;5039112;28;45419;-69
2023/07/04 08:21:30;;;;;;;;;7.33;6.00;;;;;20.78;63.87;101074.06;5040681;28;46471;-69
2023/07/04 08:23:56;;;;;;;;;5.33;4.67;;;;;20.86;62.82;101069.94;5045458;28;45542;-71
2023/07/04 08:26:24;;;;;;;;;7.33;5.33;;;;;20.98;63.02;101057.63;5057619;28;45233;-72
2023/07/04 08:28:55;;;;;;;;;8.33;4.33;;;;;21.31;62.01;101072.56;5046382;28;45358;-72
2023/07/04 08:31:21;;;;;;;;;11.67;6.00;;;;;21.51;60.58;101068.66;5046374;28;48101;-71
2023/07/04 08:33:47;;;;;;;;;7.00;5.00;;;;;21.71;59.57;101071.88;5057083;28;45348;-72
2023/07/04 08:36:14;;;;;;;;;8.00;5.00;;;;;21.89;59.03;101067.16;5050539;28;45451;-72
2023/07/04 08:38:40;;;;;;;;;8.00;6.00;;;;;21.84;57.47;101062.09;5044967;28;46536;-71
2023/07/04 08:41:41;;;;;;;;;6.00;5.00;;;;;21.87;58.39;101072.59;5052703;28;45679;-72
2023/07/04 08:44:13;;;;;;;;;7.33;5.00;;;;;21.69;57.15;101055.03;5014601;28;45457;-73
2023/07/04 08:46:43;;;;;;;;;7.00;6.33;;;;;21.77;58.07;101066.13;5013567;28;45455;-71
2023/07/04 08:49:22;;;;;;;;;8.67;7.00;;;;;21.92;58.06;101069.63;5014634;28;45318;-73
2023/07/04 08:51:57;;;;;;;;;7.33;4.67;;;;;22.09;57.72;101063.16;5014440;28;45392;-71
2023/07/04 08:54:24;;;;;;;;;9.00;5.67;;;;;22.32;56.35;101069.69;5013284;28;45485;-72
2023/07/04 08:56:50;;;;;;;;;6.33;3.67;;;;;22.43;56.83;101068.97;4986005;28;45505;-72
2023/07/04 08:59:27;;;;;;;;;5.00;4.00;;;;;22.55;55.88;101069.94;5013953;28;45468;-72
2023/07/04 09:02:06;;;;;;;;;5.00;5.00;;;;;22.62;56.21;101075.75;4994506;28;46526;-72
2023/07/04 09:04:47;;;;;;;;;7.00;7.00;;;;;22.57;55.52;101076.94;4999324;28;45368;-72
2023/07/04 09:07:35;;;;;;;;;6.67;5.00;;;;;22.53;56.03;101074.56;5014534;28;45780;-72
2023/07/04 09:10:31;;;;;;;;;8.67;5.00;;;;;22.46;55.16;101076.78;5013117;28;45483;-71
2023/07/04 09:12:56;;;;;;;;;8.33;6.00;;;;;22.30;55.28;101062.69;5014681;28;46156;-71
2023/07/04 09:15:29;;;;;;;;;3.67;3.33;;;;;22.48;55.54;101080.25;5011504;28;45369;-71
2023/07/04 09:18:03;;;;;;;;;5.33;5.33;;;;;22.60;55.66;101081.25;5014457;28;45393;-71
2023/07/04 09:20:33;;;;;;;;;6.33;5.67;;;;;22.80;53.43;101079.00;5026699;28;45350;-71
2023/07/04 09:23:09;;;;;;;;;6.00;6.00;;;;;23.11;52.44;101075.06;5056529;28;46648;-72
2023/07/04 09:25:35;;;;;;;;;8.00;4.67;;;;;23.39;51.53;101083.84;5043383;28;45515;-72
2023/07/04 09:28:00;;;;;;;;;8.33;5.00;;;;;23.66;50.47;101067.56;5036435;28;45412;-72
2023/07/04 09:30:26;;;;;;;;;10.67;7.67;;;;;24.50;49.95;101081.09;5036775;28;45282;-72
2023/07/04 09:32:52;;;;;;;;;7.33;6.00;;;;;25.58;48.57;101072.69;5036247;28;46538;-72
2023/07/04 09:35:17;;;;;;;;;4.00;4.00;;;;;26.65;43.81;101070.13;5048396;28;45449;-71
2023/07/04 09:38:02;;;;;;;;;6.00;5.00;;;;;26.84;44.90;101046.94;5056678;28;45258;-72
2023/07/04 09:40:46;;;;;;;;;4.33;4.33;;;;;27.23;42.37;101072.34;5055283;28;45396;-71
2023/07/04 09:43:31;;;;;;;;;7.33;6.33;;;;;27.92;41.48;101070.69;5053439;28;45417;-72
2023/07/04 09:46:10;;;;;;;;;5.33;4.67;;;;;28.53;41.26;101070.59;5053173;28;45395;-72
2023/07/04 09:48:36;;;;;;;;;8.00;6.00;;;;;29.07;39.96;101074.47;5056625;28;45294;-72
2023/07/04 09:51:17;;;;;;;;;6.00;5.33;;;;;29.90;39.36;101070.13;5056717;28;45369;-72
2023/07/04 09:53:43;;;;;;;;;10.33;6.67;;;;;30.70;36.91;101064.72;5054975;28;46661;-72
2023/07/04 09:56:09;;;;;;;;;7.00;5.33;;;;;31.28;34.80;101065.09;5056298;28;45492;-71
2023/07/04 09:58:36;;;;;;;;;5.33;5.33;;;;;31.85;34.83;101067.19;5055288;28;45361;-72
2023/07/04 10:01:18;;;;;;;;;11.00;6.00;;;;;32.58;36.01;101071.03;5059314;28;45454;-70
2023/07/04 10:03:49;;;;;;;;;8.67;5.00;;;;;32.80;32.39;101064.03;5052341;28;46152;-71
2023/07/04 10:06:30;;;;;;;;;9.00;8.33;;;;;32.76;32.68;101054.47;5047784;28;45272;-71
2023/07/04 10:08:57;;;;;;;;;9.33;6.00;;;;;32.50;32.90;101062.84;5052058;28;45761;-70
2023/07/04 10:11:39;;;;;;;;;7.33;6.67;;;;;32.09;35.15;101060.94;5048546;28;45376;-71
2023/07/04 10:14:11;;;;;;;;;6.67;6.67;;;;;31.57;32.87;101052.00;5049170;28;45515;-71
2023/07/04 10:16:45;;;;;;;;;5.67;4.33;;;;;31.02;34.84;101055.09;5041787;28;45428;-71
2023/07/04 10:19:16;;;;;;;;;7.33;4.33;;;;;30.76;34.36;101050.53;5039338;28;45404;-72
2023/07/04 10:21:50;;;;;;;;;6.00;5.67;;;;;30.60;34.81;101006.91;5044766;28;45490;-71
2023/07/04 10:24:18;;;;;;;;;8.00;6.33;;;;;30.77;34.19;101041.34;5058330;28;47055;-71
2023/07/04 10:26:50;;;;;;;;;8.33;5.33;;;;;30.58;34.02;101038.84;5059427;28;45348;-71
2023/07/04 10:29:19;;;;;;;;;9.00;7.67;;;;;30.29;34.18;101032.63;5059272;28;45581;-71
2023/07/04 10:31:47;;;;;;;;;5.00;5.00;;;;;30.30;33.59;101041.66;5059558;28;45327;-71
2023/07/04 10:34:18;;;;;;;;;13.00;11.00;;;;;30.03;33.76;101036.16;5059009;28;45470;-71
2023/07/04 10:36:49;;;;;;;;;4.33;4.33;;;;;29.89;35.70;101035.84;5054700;28;45419;-71
2023/07/04 10:39:16;;;;;;;;;4.33;4.33;;;;;29.63;34.52;101037.41;5049228;28;45380;-71
2023/07/04 10:41:49;;;;;;;;;7.33;5.00;;;;;29.39;34.84;101032.56;5039365;28;45466;-71
2023/07/04 10:44:37;;;;;;;;;11.67;7.67;;;;;28.86;35.20;101050.31;5038242;28;46320;-71
2023/07/04 10:47:06;;;;;;;;;8.00;6.00;;;;;28.37;35.49;101038.69;5051881;28;45364;-72
2023/07/04 10:49:40;;;;;;;;;5.67;5.33;;;;;27.89;35.34;101034.94;5051247;28;46019;-71
2023/07/04 10:52:11;;;;;;;;;6.00;6.00;;;;;27.58;36.34;101032.34;5039023;28;45302;-72
2023/07/04 10:54:37;;;;;;;;;9.67;7.00;;;;;27.55;36.36;101033.47;5039119;28;45309;-71
2023/07/04 10:57:11;;;;;;;;;7.00;5.00;;;;;27.61;36.44;101032.06;5038481;28;45349;-70
2023/07/04 10:59:42;;;;;;;;;6.00;6.00;;;;;27.63;36.44;101024.66;5038754;28;45384;-71
2023/07/04 11:02:28;;;;;;;;;8.67;5.33;;;;;27.55;36.68;101030.75;5042394;28;45394;-71
2023/07/04 11:04:59;;;;;;;;;9.33;8.00;;;;;27.35;36.94;101029.00;5053235;28;45514;-71
2023/07/04 11:07:26;;;;;;;;;5.33;5.33;;;;;27.09;36.91;101019.47;5058651;28;45469;-71
2023/07/04 11:09:57;;;;;;;;;6.67;6.00;;;;;26.84;37.34;101017.22;5057586;28;45974;-71
2023/07/04 11:12:27;;;;;;;;;6.00;6.00;;;;;26.67;37.45;101022.22;5058828;28;45245;-71
2023/07/04 11:15:00;;;;;;;;;5.00;5.00;;;;;26.54;37.93;101010.78;5058284;28;45665;-71
2023/07/04 11:17:30;;;;;;;;;8.67;6.67;;;;;26.44;38.38;101015.25;5058430;28;45332;-70
2023/07/04 11:20:07;;;;;;;;;8.33;6.00;;;;;26.24;38.02;101013.28;5058775;28;45408;-70
2023/07/04 11:22:57;;;;;;;;;6.67;5.33;;;;;26.07;38.57;101011.16;5058586;28;45396;-71
2023/07/04 11:25:35;;;;;;;;;6.67;6.00;;;;;25.94;39.01;100997.81;5058112;28;46603;-71
2023/07/04 11:28:17;;;;;;;;;7.33;5.67;;;;;25.84;39.17;101002.25;5058056;28;45446;-71
2023/07/04 11:30:45;;;;;;;;;9.33;9.33;;;;;25.72;38.63;100996.91;5058120;28;45260;-71